createdAt,value
2019-01-03T00:00:07.181Z,95.54
2019-01-03T00:02:55.014Z,95.58
2019-01-03T00:06:02.046Z,95.04
2019-01-03T00:09:09.076Z,94.48
2019-01-03T00:15:24.514Z,92.79
2019-01-03T00:18:31.483Z,92.40
2019-01-03T00:21:19.327Z,92.16
2019-01-03T00:27:34.817Z,90.61
2019-01-03T00:30:41.836Z,89.59
2019-01-03T00:36:38.050Z,90.57
2019-01-03T00:39:46.490Z,90.60
2019-01-03T00:45:28.887Z,91.87
2019-01-03T00:48:35.858Z,92.41
2019-01-03T00:57:13.361Z,93.47
2019-01-03T01:00:20.403Z,93.87
2019-01-03T01:03:27.379Z,94.04
2019-01-03T01:06:15.215Z,94.09
2019-01-03T01:09:03.009Z,94.00
2019-01-03T01:12:10.070Z,93.73
2019-01-03T01:18:06.570Z,94.54
2019-01-03T01:20:54.557Z,94.77
2019-01-03T01:24:01.647Z,94.94
2019-01-03T01:27:08.952Z,94.94
2019-01-03T01:30:17.484Z,95.13
2019-01-03T01:33:05.304Z,95.60
2019-01-03T01:36:12.364Z,94.32
2019-01-03T01:39:19.382Z,93.16
2019-01-03T01:42:26.409Z,93.88
2019-01-03T01:45:14.229Z,94.78
2019-01-03T01:51:29.650Z,96.08
2019-01-03T01:54:36.636Z,96.40
2019-01-03T01:57:43.664Z,96.52
2019-01-03T02:00:31.484Z,96.55
2019-01-03T02:06:33.072Z,96.33
2019-01-03T02:12:15.820Z,96.09
2019-01-03T02:15:22.844Z,96.21
2019-01-03T02:18:29.911Z,96.15
2019-01-03T02:21:38.580Z,96.19
2019-01-03T02:24:45.558Z,96.17
2019-01-03T02:27:54.195Z,96.12
2019-01-03T02:31:01.332Z,96.08
2019-01-03T02:33:49.123Z,96.08
2019-01-03T02:36:56.128Z,96.24
2019-01-03T02:40:03.094Z,96.32
2019-01-03T02:43:10.101Z,96.60
2019-01-03T02:52:07.469Z,96.88
2019-01-03T02:55:14.424Z,97.09
2019-01-03T02:58:21.404Z,97.15
2019-01-03T03:01:28.386Z,97.37
2019-01-03T03:04:35.341Z,97.46
2019-01-03T03:07:42.350Z,97.53
2019-01-03T03:10:49.356Z,97.48
2019-01-03T03:19:27.428Z,98.16
2019-01-03T03:25:44.288Z,98.26
2019-01-03T03:28:51.302Z,98.09
2019-01-03T03:31:58.310Z,97.94
2019-01-03T03:34:46.143Z,97.94
2019-01-03T03:37:53.109Z,98.08
2019-01-03T03:41:00.340Z,98.25
2019-01-03T03:44:07.349Z,98.35
2019-01-03T03:47:14.355Z,98.44
2019-01-03T03:50:21.472Z,98.50
2019-01-03T03:53:28.441Z,98.47
2019-01-03T03:59:30.576Z,98.21
2019-01-03T04:02:37.535Z,98.22
2019-01-03T04:05:25.373Z,98.27
2019-01-03T04:14:22.438Z,98.27
2019-01-03T04:17:29.406Z,98.27
2019-01-03T04:20:36.416Z,98.36
2019-01-03T04:23:43.646Z,98.34
2019-01-03T04:26:50.647Z,98.43
2019-01-03T04:29:57.674Z,98.51
2019-01-03T04:33:04.695Z,98.49
2019-01-03T04:36:11.680Z,98.39
2019-01-03T04:39:18.681Z,98.61
2019-01-03T04:42:25.655Z,98.59
2019-01-03T04:45:32.664Z,98.58
2019-01-03T04:48:39.620Z,98.56
2019-01-03T04:51:46.615Z,98.37
2019-01-03T04:57:48.697Z,98.17
2019-01-03T05:00:55.994Z,98.67
2019-01-03T05:09:52.679Z,99.58
2019-01-03T05:12:59.775Z,99.77
2019-01-03T05:16:06.736Z,99.96
2019-01-03T05:18:54.604Z,100.00
2019-01-03T05:24:50.836Z,100.00
2019-01-03T05:27:57.786Z,100.00
2019-01-03T05:30:45.813Z,100.00
2019-01-03T05:33:54.332Z,100.00
2019-01-03T05:37:01.338Z,100.00
2019-01-03T05:40:08.371Z,100.00
2019-01-03T05:46:23.753Z,100.00
2019-01-03T05:49:30.722Z,100.00
2019-01-03T05:52:37.725Z,100.00
2019-01-03T05:55:44.721Z,100.00
2019-01-03T06:01:40.934Z,100.00
2019-01-03T06:04:47.899Z,100.00
2019-01-03T06:13:44.780Z,100.00
2019-01-03T06:16:51.793Z,100.00
2019-01-03T06:23:07.485Z,100.00
2019-01-03T06:26:14.431Z,100.00
2019-01-03T06:29:21.446Z,100.00
2019-01-03T06:32:28.475Z,100.00
2019-01-03T06:41:38.834Z,100.00
2019-01-03T06:44:45.898Z,100.00
2019-01-03T06:47:45.555Z,100.00
2019-01-03T06:53:47.587Z,100.00
2019-01-03T06:56:54.561Z,100.00
2019-01-03T07:03:00.174Z,100.00
2019-01-03T07:09:15.697Z,100.00
2019-01-03T07:12:23.067Z,100.00
2019-01-03T07:15:30.085Z,100.00
2019-01-03T07:18:37.103Z,100.00
2019-01-03T07:24:39.057Z,100.00
2019-01-03T07:27:46.090Z,100.00
2019-01-03T07:30:54.945Z,100.00
2019-01-03T07:36:57.079Z,100.00
2019-01-03T07:40:04.072Z,100.00
2019-01-03T07:43:11.066Z,100.00
2019-01-03T07:46:18.076Z,100.00
2019-01-03T07:58:07.575Z,100.00
2019-01-03T08:01:14.548Z,100.00
2019-01-03T08:07:16.488Z,100.00
2019-01-03T08:10:24.927Z,100.00
2019-01-03T08:13:31.994Z,100.00
2019-01-03T08:16:38.974Z,100.00
2019-01-03T08:19:46.083Z,100.00
2019-01-03T08:22:53.087Z,100.00
2019-01-03T08:25:40.869Z,100.00
2019-01-03T08:28:47.882Z,100.00
2019-01-03T08:31:54.846Z,100.00
2019-01-03T08:37:56.585Z,99.40
2019-01-03T08:43:58.927Z,98.99
2019-01-03T08:47:05.928Z,99.04
2019-01-03T08:50:12.927Z,98.83
2019-01-03T08:55:56.005Z,98.45
2019-01-03T08:59:02.964Z,98.35
2019-01-03T09:01:51.246Z,98.45
2019-01-03T09:04:58.231Z,98.32
2019-01-03T09:08:05.246Z,98.32
2019-01-03T09:14:20.748Z,97.52
2019-01-03T09:17:08.630Z,97.56
2019-01-03T09:23:05.254Z,96.86
2019-01-03T09:25:53.025Z,96.88
2019-01-03T09:29:00.038Z,96.97
2019-01-03T09:32:07.040Z,96.31
2019-01-03T09:35:13.998Z,96.25
2019-01-03T09:38:20.992Z,95.81
2019-01-03T09:41:27.965Z,95.19
2019-01-03T09:47:11.151Z,95.22
2019-01-03T09:49:58.984Z,95.20
2019-01-03T09:52:27.847Z,94.62
2019-01-03T09:55:17.372Z,94.98
2019-01-03T09:58:06.251Z,95.06
2019-01-03T10:00:54.213Z,94.42
2019-01-03T10:03:42.074Z,94.17
2019-01-03T10:06:29.960Z,93.69
2019-01-03T10:09:17.989Z,94.21
2019-01-03T10:12:05.817Z,93.73
2019-01-03T10:14:53.778Z,93.84
2019-01-03T10:17:41.684Z,93.94
2019-01-03T10:23:05.473Z,93.38
2019-01-03T10:25:53.357Z,93.51
2019-01-03T10:28:41.304Z,92.98
2019-01-03T10:31:29.240Z,92.61
2019-01-03T10:34:17.177Z,92.12
2019-01-03T10:37:05.051Z,92.17
2019-01-03T10:39:53.000Z,91.43
2019-01-03T10:42:41.103Z,91.42
2019-01-03T10:45:49.561Z,90.15
2019-01-03T10:48:37.353Z,89.39
2019-01-03T10:51:06.038Z,89.45
2019-01-03T10:53:53.997Z,89.70
2019-01-03T10:56:41.950Z,89.65
2019-01-03T10:59:29.904Z,89.86
2019-01-03T11:02:17.859Z,89.69
2019-01-03T11:05:05.832Z,90.51
2019-01-03T11:07:53.654Z,90.91
2019-01-03T11:10:41.531Z,90.17
2019-01-03T11:13:29.487Z,91.14
2019-01-03T11:16:17.437Z,91.65
2019-01-03T11:19:05.257Z,90.92
2019-01-03T11:21:53.089Z,90.60
2019-01-03T11:24:40.983Z,91.88
2019-01-03T11:27:28.901Z,91.78
2019-01-03T11:30:16.858Z,90.76
2019-01-03T11:32:45.497Z,90.44
2019-01-03T11:35:33.598Z,90.31
2019-01-03T11:38:21.479Z,90.23
2019-01-03T11:41:09.377Z,90.89
2019-01-03T11:43:57.193Z,89.58
2019-01-03T11:46:45.160Z,86.51
2019-01-03T11:49:33.100Z,84.96
2019-01-03T11:52:20.968Z,85.52
2019-01-03T11:55:09.010Z,84.77
2019-01-03T11:57:56.796Z,85.40
2019-01-03T12:00:44.628Z,85.89
2019-01-03T12:03:32.572Z,86.28
2019-01-03T12:06:20.412Z,86.22
2019-01-03T12:09:08.293Z,86.19
2019-01-03T12:11:56.244Z,86.79
2019-01-03T12:14:44.169Z,86.77
2019-01-03T12:17:32.124Z,87.20
2019-01-03T12:20:00.829Z,87.80
2019-01-03T12:22:48.778Z,88.41
2019-01-03T12:25:36.820Z,89.00
2019-01-03T12:28:05.511Z,89.33
2019-01-03T12:30:53.460Z,88.96
2019-01-03T12:33:41.341Z,88.79
2019-01-03T12:36:29.183Z,89.12
2019-01-03T12:39:17.174Z,88.96
2019-01-03T12:42:05.071Z,88.89
2019-01-03T12:47:27.655Z,88.88
2019-01-03T12:50:15.557Z,89.79
2019-01-03T12:53:03.513Z,89.37
2019-01-03T12:55:51.313Z,90.17
2019-01-03T12:58:39.398Z,88.99
2019-01-03T13:01:27.342Z,88.21
2019-01-03T13:04:15.253Z,87.99
2019-01-03T13:07:03.206Z,86.53
2019-01-03T13:09:51.164Z,86.34
2019-01-03T13:12:39.117Z,85.24
2019-01-03T13:15:47.580Z,86.03
2019-01-03T13:18:35.533Z,84.78
2019-01-03T13:21:23.469Z,84.21
2019-01-03T13:24:11.438Z,84.55
2019-01-03T13:26:59.349Z,83.85
2019-01-03T13:29:47.307Z,84.17
2019-01-03T13:32:35.139Z,83.57
2019-01-03T13:35:43.661Z,82.99
2019-01-03T13:38:31.453Z,84.33
2019-01-03T13:41:19.393Z,84.39
2019-01-03T13:44:07.341Z,85.74
2019-01-03T13:46:55.126Z,85.29
2019-01-03T13:49:43.130Z,84.44
2019-01-03T13:52:31.040Z,84.31
2019-01-03T13:55:19.247Z,86.12
2019-01-03T13:58:07.044Z,85.83
2019-01-03T14:00:55.006Z,86.95
2019-01-03T14:03:42.916Z,87.85
2019-01-03T14:06:30.862Z,88.74
2019-01-03T14:09:18.825Z,88.88
2019-01-03T14:12:06.665Z,89.45
2019-01-03T14:14:54.647Z,89.79
2019-01-03T14:17:42.555Z,90.29
2019-01-03T14:20:51.026Z,91.67
2019-01-03T14:23:39.592Z,92.71
2019-01-03T14:26:27.467Z,93.43
2019-01-03T14:29:15.246Z,93.13
2019-01-03T14:32:03.073Z,92.96
2019-01-03T14:34:50.878Z,93.03
2019-01-03T14:37:38.819Z,93.51
2019-01-03T14:40:47.243Z,93.90
2019-01-03T14:43:55.744Z,93.91
2019-01-03T14:46:43.685Z,93.96
2019-01-03T14:49:31.597Z,94.65
2019-01-03T14:55:14.258Z,95.24
2019-01-03T14:58:02.140Z,95.45
2019-01-03T15:00:50.209Z,95.92
2019-01-03T15:03:38.193Z,95.83
2019-01-03T15:06:26.156Z,95.79
2019-01-03T15:09:14.097Z,95.77
2019-01-03T15:12:02.059Z,95.77
2019-01-03T15:14:49.989Z,96.12
2019-01-03T15:17:37.865Z,96.09
2019-01-03T15:20:46.493Z,96.41
2019-01-03T15:23:34.453Z,96.93
2019-01-03T15:26:22.227Z,97.22
2019-01-03T15:29:10.110Z,97.64
2019-01-03T15:31:58.039Z,97.78
2019-01-03T15:34:45.993Z,98.26
2019-01-03T15:37:33.906Z,98.78
2019-01-03T15:40:21.892Z,99.33
2019-01-03T15:43:21.605Z,99.82
2019-01-03T15:45:59.433Z,100.00
2019-01-03T15:48:47.348Z,100.00
2019-01-03T15:51:35.329Z,100.00
2019-01-03T15:54:23.248Z,100.00
2019-01-03T15:57:11.188Z,100.00
2019-01-03T15:59:59.111Z,100.00
2019-01-03T16:02:47.037Z,100.00
2019-01-03T16:05:34.887Z,100.00
2019-01-03T16:08:22.775Z,100.00
2019-01-03T16:11:10.781Z,100.00
2019-01-03T16:13:58.762Z,100.00
2019-01-03T16:16:46.674Z,100.00
2019-01-03T16:19:34.505Z,100.00
2019-01-03T16:22:22.476Z,100.00
2019-01-03T16:25:10.405Z,100.00
2019-01-03T16:27:58.351Z,100.00
2019-01-03T16:30:46.294Z,100.00
2019-01-03T16:33:34.108Z,100.00
2019-01-03T16:36:21.950Z,100.00
2019-01-03T16:39:10.181Z,100.00
2019-01-03T16:44:52.545Z,100.00
2019-01-03T16:47:40.482Z,100.00
2019-01-03T16:50:48.975Z,100.00
2019-01-03T16:53:36.756Z,100.00
2019-01-03T16:56:25.442Z,100.00
2019-01-03T17:01:29.429Z,100.00
2019-01-03T17:04:38.332Z,100.00
2019-01-03T17:07:26.253Z,100.00
2019-01-03T17:10:34.736Z,100.00
2019-01-03T17:13:43.218Z,100.00
2019-01-03T17:16:51.722Z,100.00
2019-01-03T17:20:01.979Z,100.00
2019-01-03T17:23:10.787Z,100.00
2019-01-03T17:26:00.359Z,100.00
2019-01-03T17:28:48.425Z,100.00
2019-01-03T17:31:57.229Z,100.00
2019-01-03T17:34:47.103Z,100.00
2019-01-03T17:37:56.116Z,100.00
2019-01-03T17:41:07.602Z,100.00
2019-01-03T17:43:57.215Z,100.00
2019-01-03T17:55:37.320Z,100.00
2019-01-03T17:58:48.257Z,100.00
2019-01-03T18:01:37.157Z,100.00
2019-01-03T18:07:47.321Z,100.00
2019-01-03T18:10:58.988Z,100.00
2019-01-03T18:13:49.540Z,100.00
2019-01-03T18:16:37.847Z,100.00
2019-01-03T18:19:47.006Z,100.00
2019-01-03T18:22:37.872Z,100.00
2019-01-03T18:25:46.811Z,100.00
2019-01-03T18:28:57.063Z,100.00
2019-01-03T18:32:07.082Z,100.00
2019-01-03T18:34:56.180Z,100.00
2019-01-03T18:37:44.540Z,100.00
2019-01-03T18:40:52.964Z,100.00
2019-01-03T18:43:23.537Z,100.00
2019-01-03T18:46:33.853Z,100.00
2019-01-03T18:49:43.090Z,100.00
2019-01-03T18:52:53.728Z,100.00
2019-01-03T18:56:03.422Z,100.00
2019-01-03T18:59:13.321Z,100.00
2019-01-03T19:02:24.581Z,100.00
2019-01-03T19:05:33.374Z,100.00
2019-01-03T19:08:22.845Z,100.00
2019-01-03T19:17:03.029Z,100.00
2019-01-03T19:23:02.049Z,100.00
2019-01-03T19:28:59.372Z,100.00
2019-01-03T19:34:56.758Z,100.00
2019-01-03T19:38:08.794Z,100.00
2019-01-03T19:40:58.225Z,100.00
2019-01-03T19:46:54.919Z,100.00
2019-01-03T19:52:32.370Z,100.00
2019-01-03T19:58:07.989Z,100.00
2019-01-03T20:01:17.462Z,100.00
2019-01-03T20:04:06.881Z,100.00
2019-01-03T20:06:36.554Z,100.00
2019-01-03T20:09:45.049Z,100.00
2019-01-03T20:12:53.551Z,100.00
2019-01-03T20:16:02.316Z,100.00
2019-01-03T20:19:10.920Z,100.00
2019-01-03T20:22:19.640Z,100.00
2019-01-03T20:25:07.488Z,100.00
2019-01-03T20:27:55.436Z,100.00
2019-01-03T20:33:23.492Z,100.00
2019-01-03T20:39:09.584Z,100.00
2019-01-03T20:44:39.379Z,100.00
2019-01-03T20:47:28.521Z,100.00
2019-01-03T20:50:18.759Z,100.00
2019-01-03T20:53:30.961Z,100.00
2019-01-03T21:02:44.906Z,100.00
2019-01-03T21:05:34.465Z,100.00
2019-01-03T21:08:24.560Z,100.00
2019-01-03T21:11:13.086Z,100.00
2019-01-03T21:14:03.414Z,100.00
2019-01-03T21:23:03.691Z,100.00
2019-01-03T21:26:12.133Z,100.00
2019-01-03T21:29:01.724Z,100.00
2019-01-03T21:35:20.772Z,100.00
2019-01-03T21:47:14.904Z,100.00
2019-01-03T21:50:25.491Z,100.00
2019-01-03T21:53:36.260Z,100.00
2019-01-03T21:56:44.769Z,100.00
2019-01-03T22:02:41.354Z,100.00
2019-01-03T22:05:51.547Z,100.00
2019-01-03T22:08:39.548Z,100.00
2019-01-03T22:17:31.880Z,100.00
2019-01-03T22:23:38.345Z,100.00
2019-01-03T22:29:43.181Z,100.00
2019-01-03T22:32:53.346Z,100.00
2019-01-03T22:36:01.838Z,100.00
2019-01-03T22:39:10.347Z,100.00
2019-01-03T22:42:19.081Z,100.00
2019-01-03T22:45:28.130Z,100.00
2019-01-03T22:48:38.004Z,100.00
2019-01-03T22:51:49.065Z,100.00
2019-01-03T22:54:57.606Z,100.00
2019-01-03T22:58:06.376Z,100.00
2019-01-03T23:01:14.862Z,100.00
2019-01-03T23:04:23.305Z,100.00
2019-01-03T23:07:31.928Z,100.00
2019-01-03T23:10:40.528Z,100.00
2019-01-03T23:13:49.010Z,100.00
2019-01-03T23:16:59.734Z,100.00
2019-01-03T23:20:08.793Z,100.00
2019-01-03T23:26:06.237Z,100.00
2019-01-03T23:29:14.854Z,100.00
2019-01-03T23:32:02.893Z,100.00
2019-01-03T23:35:11.525Z,100.00
2019-01-03T23:37:59.345Z,100.00
2019-01-03T23:41:07.976Z,100.00
2019-01-03T23:43:56.025Z,100.00
2019-01-03T23:50:01.063Z,100.00
2019-01-03T23:53:11.547Z,100.00
2019-01-03T23:56:20.491Z,100.00
